sensor_id;sensor_type;location;lat;lon;timestamp;P1;durP1;ratioP1;P2;durP2;ratioP2
19016;SDS011;9641;51.494;6.670;2023-05-20T00:02:09;5.63;;;2.67;;
19016;SDS011;9641;51.494;6.670;2023-05-20T00:04:36;3.07;;;2.17;;
19016;SDS011;9641;51.494;6.670;2023-05-20T00:07:04;1.80;;;1.70;;
19016;SDS011;9641;51.494;6.670;2023-05-20T00:09:32;3.30;;;2.00;;
19016;SDS011;9641;51.494;6.670;2023-05-20T00:11:59;3.83;;;1.97;;
19016;SDS011;9641;51.494;6.670;2023-05-20T00:14:26;4.43;;;2.33;;
19016;SDS011;9641;51.494;6.670;2023-05-20T00:16:53;3.30;;;1.90;;
19016;SDS011;9641;51.494;6.670;2023-05-20T00:19:20;1.87;;;1.77;;
19016;SDS011;9641;51.494;6.670;2023-05-20T00:21:47;2.43;;;1.80;;
19016;SDS011;9641;51.494;6.670;2023-05-20T00:24:13;2.40;;;1.97;;
19016;SDS011;9641;51.494;6.670;2023-05-20T00:26:42;2.30;;;1.77;;
19016;SDS011;9641;51.494;6.670;2023-05-20T00:29:08;3.47;;;2.10;;
19016;SDS011;9641;51.494;6.670;2023-05-20T00:31:35;2.20;;;2.00;;
19016;SDS011;9641;51.494;6.670;2023-05-20T00:34:02;3.00;;;2.23;;
19016;SDS011;9641;51.494;6.670;2023-05-20T00:36:29;3.23;;;2.23;;
19016;SDS011;9641;51.494;6.670;2023-05-20T00:38:56;3.30;;;2.27;;
19016;SDS011;9641;51.494;6.670;2023-05-20T00:41:23;2.10;;;1.90;;
19016;SDS011;9641;51.494;6.670;2023-05-20T00:43:53;3.37;;;1.90;;
19016;SDS011;9641;51.494;6.670;2023-05-20T00:46:20;4.30;;;2.20;;
19016;SDS011;9641;51.494;6.670;2023-05-20T00:48:47;4.40;;;2.60;;
19016;SDS011;9641;51.494;6.670;2023-05-20T00:51:15;3.13;;;2.23;;
19016;SDS011;9641;51.494;6.670;2023-05-20T00:53:42;2.30;;;2.10;;
19016;SDS011;9641;51.494;6.670;2023-05-20T00:56:09;3.47;;;2.30;;
19016;SDS011;9641;51.494;6.670;2023-05-20T00:58:36;4.67;;;2.50;;
19016;SDS011;9641;51.494;6.670;2023-05-20T01:01:05;3.87;;;2.37;;
19016;SDS011;9641;51.494;6.670;2023-05-20T01:03:32;3.27;;;2.73;;
19016;SDS011;9641;51.494;6.670;2023-05-20T01:05:59;2.40;;;2.20;;
19016;SDS011;9641;51.494;6.670;2023-05-20T01:08:27;2.30;;;2.10;;
19016;SDS011;9641;51.494;6.670;2023-05-20T01:10:55;5.53;;;2.27;;
19016;SDS011;9641;51.494;6.670;2023-05-20T01:13:30;3.43;;;2.17;;
19016;SDS011;9641;51.494;6.670;2023-05-20T01:16:02;2.90;;;2.20;;
19016;SDS011;9641;51.494;6.670;2023-05-20T01:18:32;2.63;;;2.40;;
19016;SDS011;9641;51.494;6.670;2023-05-20T01:20:59;3.53;;;2.43;;
19016;SDS011;9641;51.494;6.670;2023-05-20T01:23:36;2.73;;;2.03;;
19016;SDS011;9641;51.494;6.670;2023-05-20T01:26:07;2.67;;;2.40;;
19016;SDS011;9641;51.494;6.670;2023-05-20T01:28:37;3.40;;;2.57;;
19016;SDS011;9641;51.494;6.670;2023-05-20T01:31:05;4.20;;;2.27;;
19016;SDS011;9641;51.494;6.670;2023-05-20T01:33:38;6.37;;;2.50;;
19016;SDS011;9641;51.494;6.670;2023-05-20T01:36:07;3.80;;;2.53;;
19016;SDS011;9641;51.494;6.670;2023-05-20T01:38:36;3.70;;;2.37;;
19016;SDS011;9641;51.494;6.670;2023-05-20T01:41:06;2.70;;;2.40;;
19016;SDS011;9641;51.494;6.670;2023-05-20T01:43:34;3.10;;;2.77;;
19016;SDS011;9641;51.494;6.670;2023-05-20T01:46:04;3.43;;;2.90;;
19016;SDS011;9641;51.494;6.670;2023-05-20T01:48:31;4.23;;;2.90;;
19016;SDS011;9641;51.494;6.670;2023-05-20T01:50:58;4.70;;;2.90;;
19016;SDS011;9641;51.494;6.670;2023-05-20T01:53:25;3.90;;;2.70;;
19016;SDS011;9641;51.494;6.670;2023-05-20T01:55:53;4.37;;;2.60;;
19016;SDS011;9641;51.494;6.670;2023-05-20T01:58:21;4.27;;;2.70;;
19016;SDS011;9641;51.494;6.670;2023-05-20T02:00:48;3.80;;;2.57;;
19016;SDS011;9641;51.494;6.670;2023-05-20T02:03:15;2.77;;;2.30;;
19016;SDS011;9641;51.494;6.670;2023-05-20T02:05:42;5.77;;;2.37;;
19016;SDS011;9641;51.494;6.670;2023-05-20T02:08:09;3.83;;;2.70;;
19016;SDS011;9641;51.494;6.670;2023-05-20T02:10:36;3.03;;;2.73;;
19016;SDS011;9641;51.494;6.670;2023-05-20T02:13:04;4.40;;;2.97;;
19016;SDS011;9641;51.494;6.670;2023-05-20T02:15:32;4.33;;;2.80;;
19016;SDS011;9641;51.494;6.670;2023-05-20T02:17:59;7.07;;;2.77;;
19016;SDS011;9641;51.494;6.670;2023-05-20T02:20:26;5.97;;;2.40;;
19016;SDS011;9641;51.494;6.670;2023-05-20T02:22:53;6.00;;;2.77;;
19016;SDS011;9641;51.494;6.670;2023-05-20T02:25:20;4.10;;;2.60;;
19016;SDS011;9641;51.494;6.670;2023-05-20T02:27:46;5.13;;;2.50;;
19016;SDS011;9641;51.494;6.670;2023-05-20T02:30:15;5.87;;;2.83;;
19016;SDS011;9641;51.494;6.670;2023-05-20T02:32:42;5.07;;;2.70;;
19016;SDS011;9641;51.494;6.670;2023-05-20T02:35:10;4.90;;;2.50;;
19016;SDS011;9641;51.494;6.670;2023-05-20T02:37:37;3.30;;;2.77;;
19016;SDS011;9641;51.494;6.670;2023-05-20T02:40:05;3.73;;;2.67;;
19016;SDS011;9641;51.494;6.670;2023-05-20T02:42:35;2.90;;;2.60;;
19016;SDS011;9641;51.494;6.670;2023-05-20T02:45:02;4.40;;;3.07;;
19016;SDS011;9641;51.494;6.670;2023-05-20T02:47:30;6.13;;;2.83;;
19016;SDS011;9641;51.494;6.670;2023-05-20T02:49:59;4.13;;;2.70;;
19016;SDS011;9641;51.494;6.670;2023-05-20T02:52:28;6.10;;;3.30;;
19016;SDS011;9641;51.494;6.670;2023-05-20T02:54:54;6.07;;;3.00;;
19016;SDS011;9641;51.494;6.670;2023-05-20T02:57:22;5.43;;;2.60;;
19016;SDS011;9641;51.494;6.670;2023-05-20T02:59:49;3.90;;;2.43;;
19016;SDS011;9641;51.494;6.670;2023-05-20T03:02:16;2.93;;;2.73;;
19016;SDS011;9641;51.494;6.670;2023-05-20T03:04:45;7.20;;;3.00;;
19016;SDS011;9641;51.494;6.670;2023-05-20T03:07:12;3.30;;;2.93;;
19016;SDS011;9641;51.494;6.670;2023-05-20T03:09:41;4.50;;;2.57;;
19016;SDS011;9641;51.494;6.670;2023-05-20T03:12:09;3.37;;;2.93;;
19016;SDS011;9641;51.494;6.670;2023-05-20T03:14:36;8.20;;;3.17;;
19016;SDS011;9641;51.494;6.670;2023-05-20T03:17:03;4.97;;;3.03;;
19016;SDS011;9641;51.494;6.670;2023-05-20T03:19:30;5.87;;;3.03;;
19016;SDS011;9641;51.494;6.670;2023-05-20T03:21:58;3.80;;;2.90;;
19016;SDS011;9641;51.494;6.670;2023-05-20T03:24:25;7.80;;;2.87;;
19016;SDS011;9641;51.494;6.670;2023-05-20T03:26:52;3.20;;;2.70;;
19016;SDS011;9641;51.494;6.670;2023-05-20T03:29:21;5.57;;;3.00;;
19016;SDS011;9641;51.494;6.670;2023-05-20T03:31:48;5.47;;;3.10;;
19016;SDS011;9641;51.494;6.670;2023-05-20T03:34:15;5.63;;;3.30;;
19016;SDS011;9641;51.494;6.670;2023-05-20T03:36:43;4.37;;;3.30;;
19016;SDS011;9641;51.494;6.670;2023-05-20T03:39:11;5.17;;;2.97;;
19016;SDS011;9641;51.494;6.670;2023-05-20T03:41:39;4.77;;;3.03;;
19016;SDS011;9641;51.494;6.670;2023-05-20T03:44:06;6.57;;;3.50;;
19016;SDS011;9641;51.494;6.670;2023-05-20T03:46:33;7.50;;;2.83;;
19016;SDS011;9641;51.494;6.670;2023-05-20T03:49:00;6.67;;;3.30;;
19016;SDS011;9641;51.494;6.670;2023-05-20T03:51:27;5.90;;;3.23;;
19016;SDS011;9641;51.494;6.670;2023-05-20T03:54:01;5.43;;;3.30;;
19016;SDS011;9641;51.494;6.670;2023-05-20T03:56:30;4.30;;;3.50;;
19016;SDS011;9641;51.494;6.670;2023-05-20T03:58:57;4.33;;;3.13;;
19016;SDS011;9641;51.494;6.670;2023-05-20T04:01:24;6.20;;;3.50;;
19016;SDS011;9641;51.494;6.670;2023-05-20T04:03:53;6.57;;;3.10;;
19016;SDS011;9641;51.494;6.670;2023-05-20T04:06:20;6.00;;;2.93;;
19016;SDS011;9641;51.494;6.670;2023-05-20T04:08:48;6.20;;;3.20;;
19016;SDS011;9641;51.494;6.670;2023-05-20T04:11:19;10.80;;;3.93;;
19016;SDS011;9641;51.494;6.670;2023-05-20T04:13:47;6.13;;;4.27;;
19016;SDS011;9641;51.494;6.670;2023-05-20T04:16:14;4.47;;;3.03;;
19016;SDS011;9641;51.494;6.670;2023-05-20T04:18:41;8.83;;;3.40;;
19016;SDS011;9641;51.494;6.670;2023-05-20T04:21:10;4.10;;;3.10;;
19016;SDS011;9641;51.494;6.670;2023-05-20T04:23:37;6.63;;;3.70;;
19016;SDS011;9641;51.494;6.670;2023-05-20T04:26:03;9.13;;;3.83;;
19016;SDS011;9641;51.494;6.670;2023-05-20T04:28:31;8.53;;;4.07;;
19016;SDS011;9641;51.494;6.670;2023-05-20T04:31:00;5.53;;;3.10;;
19016;SDS011;9641;51.494;6.670;2023-05-20T04:33:29;5.70;;;3.40;;
19016;SDS011;9641;51.494;6.670;2023-05-20T04:35:57;5.60;;;3.37;;
19016;SDS011;9641;51.494;6.670;2023-05-20T04:38:25;9.57;;;3.63;;
19016;SDS011;9641;51.494;6.670;2023-05-20T04:40:54;4.03;;;2.90;;
19016;SDS011;9641;51.494;6.670;2023-05-20T04:43:22;3.70;;;3.20;;
19016;SDS011;9641;51.494;6.670;2023-05-20T04:45:49;5.97;;;3.37;;
19016;SDS011;9641;51.494;6.670;2023-05-20T04:48:18;5.00;;;3.10;;
19016;SDS011;9641;51.494;6.670;2023-05-20T04:50:46;7.67;;;3.00;;
19016;SDS011;9641;51.494;6.670;2023-05-20T04:53:14;4.37;;;3.57;;
19016;SDS011;9641;51.494;6.670;2023-05-20T04:55:41;3.50;;;3.00;;
19016;SDS011;9641;51.494;6.670;2023-05-20T04:58:08;5.17;;;3.10;;
19016;SDS011;9641;51.494;6.670;2023-05-20T05:00:40;3.70;;;3.27;;
19016;SDS011;9641;51.494;6.670;2023-05-20T05:03:07;4.23;;;3.43;;
19016;SDS011;9641;51.494;6.670;2023-05-20T05:05:35;7.53;;;3.77;;
19016;SDS011;9641;51.494;6.670;2023-05-20T05:08:03;6.20;;;3.30;;
19016;SDS011;9641;51.494;6.670;2023-05-20T05:10:32;4.90;;;3.20;;
19016;SDS011;9641;51.494;6.670;2023-05-20T05:13:00;6.10;;;3.10;;
19016;SDS011;9641;51.494;6.670;2023-05-20T05:15:27;4.10;;;3.47;;
19016;SDS011;9641;51.494;6.670;2023-05-20T05:17:54;5.17;;;3.30;;
19016;SDS011;9641;51.494;6.670;2023-05-20T05:20:22;5.13;;;3.67;;
19016;SDS011;9641;51.494;6.670;2023-05-20T05:22:50;4.93;;;3.30;;
19016;SDS011;9641;51.494;6.670;2023-05-20T05:25:18;4.10;;;3.13;;
19016;SDS011;9641;51.494;6.670;2023-05-20T05:27:45;5.67;;;3.57;;
19016;SDS011;9641;51.494;6.670;2023-05-20T05:30:13;5.10;;;3.33;;
19016;SDS011;9641;51.494;6.670;2023-05-20T05:32:40;7.77;;;4.13;;
19016;SDS011;9641;51.494;6.670;2023-05-20T05:35:07;5.83;;;3.40;;
19016;SDS011;9641;51.494;6.670;2023-05-20T05:37:36;3.63;;;3.20;;
19016;SDS011;9641;51.494;6.670;2023-05-20T05:40:06;5.20;;;3.50;;
19016;SDS011;9641;51.494;6.670;2023-05-20T05:42:34;5.87;;;3.30;;
19016;SDS011;9641;51.494;6.670;2023-05-20T05:45:01;5.57;;;3.57;;
19016;SDS011;9641;51.494;6.670;2023-05-20T05:47:29;5.00;;;3.70;;
19016;SDS011;9641;51.494;6.670;2023-05-20T05:49:57;5.23;;;3.23;;
19016;SDS011;9641;51.494;6.670;2023-05-20T05:52:25;5.67;;;3.30;;
19016;SDS011;9641;51.494;6.670;2023-05-20T05:54:52;6.43;;;3.03;;
19016;SDS011;9641;51.494;6.670;2023-05-20T05:57:21;6.70;;;3.20;;
19016;SDS011;9641;51.494;6.670;2023-05-20T05:59:49;5.57;;;3.20;;
19016;SDS011;9641;51.494;6.670;2023-05-20T06:02:16;6.50;;;3.03;;
19016;SDS011;9641;51.494;6.670;2023-05-20T06:04:43;4.73;;;3.40;;
19016;SDS011;9641;51.494;6.670;2023-05-20T06:07:10;4.20;;;3.10;;
19016;SDS011;9641;51.494;6.670;2023-05-20T06:09:37;5.33;;;3.00;;
19016;SDS011;9641;51.494;6.670;2023-05-20T06:12:04;4.93;;;2.97;;
19016;SDS011;9641;51.494;6.670;2023-05-20T06:14:33;5.97;;;3.40;;
19016;SDS011;9641;51.494;6.670;2023-05-20T06:17:00;5.77;;;3.33;;
19016;SDS011;9641;51.494;6.670;2023-05-20T06:19:27;5.07;;;3.17;;
19016;SDS011;9641;51.494;6.670;2023-05-20T06:21:54;4.47;;;3.30;;
19016;SDS011;9641;51.494;6.670;2023-05-20T06:24:21;5.10;;;3.00;;
19016;SDS011;9641;51.494;6.670;2023-05-20T06:26:49;5.43;;;3.30;;
19016;SDS011;9641;51.494;6.670;2023-05-20T06:29:16;4.67;;;3.30;;
19016;SDS011;9641;51.494;6.670;2023-05-20T06:31:44;6.87;;;3.50;;
19016;SDS011;9641;51.494;6.670;2023-05-20T06:34:12;6.70;;;3.30;;
19016;SDS011;9641;51.494;6.670;2023-05-20T06:36:40;8.17;;;3.73;;
19016;SDS011;9641;51.494;6.670;2023-05-20T06:39:07;6.70;;;3.50;;
19016;SDS011;9641;51.494;6.670;2023-05-20T06:41:37;4.33;;;3.70;;
19016;SDS011;9641;51.494;6.670;2023-05-20T06:44:07;5.67;;;3.77;;
19016;SDS011;9641;51.494;6.670;2023-05-20T06:46:34;6.23;;;3.20;;
19016;SDS011;9641;51.494;6.670;2023-05-20T06:49:09;3.93;;;3.23;;
19016;SDS011;9641;51.494;6.670;2023-05-20T06:51:36;6.10;;;3.50;;
19016;SDS011;9641;51.494;6.670;2023-05-20T06:54:03;4.67;;;3.10;;
19016;SDS011;9641;51.494;6.670;2023-05-20T06:56:30;3.93;;;3.10;;
19016;SDS011;9641;51.494;6.670;2023-05-20T06:58:57;6.73;;;3.43;;
19016;SDS011;9641;51.494;6.670;2023-05-20T07:01:25;6.27;;;3.00;;
19016;SDS011;9641;51.494;6.670;2023-05-20T07:03:52;3.50;;;3.20;;
19016;SDS011;9641;51.494;6.670;2023-05-20T07:06:20;4.63;;;3.03;;
19016;SDS011;9641;51.494;6.670;2023-05-20T07:08:47;3.93;;;2.90;;
19016;SDS011;9641;51.494;6.670;2023-05-20T07:11:15;5.37;;;3.20;;
19016;SDS011;9641;51.494;6.670;2023-05-20T07:13:43;3.53;;;2.97;;
19016;SDS011;9641;51.494;6.670;2023-05-20T07:16:10;5.57;;;3.33;;
19016;SDS011;9641;51.494;6.670;2023-05-20T07:18:40;5.47;;;2.87;;
19016;SDS011;9641;51.494;6.670;2023-05-20T07:21:07;4.47;;;3.10;;
19016;SDS011;9641;51.494;6.670;2023-05-20T07:23:46;5.33;;;3.10;;
19016;SDS011;9641;51.494;6.670;2023-05-20T07:26:16;8.10;;;2.73;;
19016;SDS011;9641;51.494;6.670;2023-05-20T07:28:44;3.30;;;2.70;;
19016;SDS011;9641;51.494;6.670;2023-05-20T07:31:11;6.50;;;2.90;;
19016;SDS011;9641;51.494;6.670;2023-05-20T07:33:42;3.00;;;2.77;;
19016;SDS011;9641;51.494;6.670;2023-05-20T07:36:10;4.20;;;3.03;;
19016;SDS011;9641;51.494;6.670;2023-05-20T07:38:39;5.37;;;2.77;;
19016;SDS011;9641;51.494;6.670;2023-05-20T07:41:09;4.87;;;2.93;;
19016;SDS011;9641;51.494;6.670;2023-05-20T07:43:36;6.00;;;3.03;;
19016;SDS011;9641;51.494;6.670;2023-05-20T07:46:05;4.27;;;3.13;;
19016;SDS011;9641;51.494;6.670;2023-05-20T07:48:32;5.23;;;2.80;;
19016;SDS011;9641;51.494;6.670;2023-05-20T07:50:59;6.30;;;3.07;;
19016;SDS011;9641;51.494;6.670;2023-05-20T07:53:27;3.33;;;3.03;;
19016;SDS011;9641;51.494;6.670;2023-05-20T07:55:54;11.30;;;3.10;;
19016;SDS011;9641;51.494;6.670;2023-05-20T07:58:22;5.27;;;3.23;;
19016;SDS011;9641;51.494;6.670;2023-05-20T08:00:50;5.53;;;3.53;;
19016;SDS011;9641;51.494;6.670;2023-05-20T08:03:17;5.87;;;3.13;;
19016;SDS011;9641;51.494;6.670;2023-05-20T08:06:03;8.03;;;3.73;;
19016;SDS011;9641;51.494;6.670;2023-05-20T08:08:31;8.67;;;3.63;;
19016;SDS011;9641;51.494;6.670;2023-05-20T08:11:05;5.40;;;3.50;;
19016;SDS011;9641;51.494;6.670;2023-05-20T08:13:33;4.43;;;3.70;;
19016;SDS011;9641;51.494;6.670;2023-05-20T08:16:02;5.27;;;3.13;;
19016;SDS011;9641;51.494;6.670;2023-05-20T08:18:30;7.20;;;3.70;;
19016;SDS011;9641;51.494;6.670;2023-05-20T08:20:57;6.60;;;3.93;;
19016;SDS011;9641;51.494;6.670;2023-05-20T08:23:25;5.23;;;4.00;;
19016;SDS011;9641;51.494;6.670;2023-05-20T08:25:52;4.47;;;3.70;;
19016;SDS011;9641;51.494;6.670;2023-05-20T08:28:21;7.27;;;3.83;;
19016;SDS011;9641;51.494;6.670;2023-05-20T08:30:53;5.63;;;3.87;;
19016;SDS011;9641;51.494;6.670;2023-05-20T08:33:20;5.93;;;4.10;;
19016;SDS011;9641;51.494;6.670;2023-05-20T08:35:50;7.60;;;3.90;;
19016;SDS011;9641;51.494;6.670;2023-05-20T08:38:18;7.00;;;4.30;;
19016;SDS011;9641;51.494;6.670;2023-05-20T08:40:45;7.07;;;4.30;;
19016;SDS011;9641;51.494;6.670;2023-05-20T08:43:33;5.80;;;4.20;;
19016;SDS011;9641;51.494;6.670;2023-05-20T08:46:02;7.17;;;3.90;;
19016;SDS011;9641;51.494;6.670;2023-05-20T08:48:32;9.57;;;4.60;;
19016;SDS011;9641;51.494;6.670;2023-05-20T08:51:02;5.97;;;3.90;;
19016;SDS011;9641;51.494;6.670;2023-05-20T08:53:33;6.60;;;3.80;;
19016;SDS011;9641;51.494;6.670;2023-05-20T08:56:00;6.13;;;4.10;;
19016;SDS011;9641;51.494;6.670;2023-05-20T08:58:27;5.00;;;3.97;;
19016;SDS011;9641;51.494;6.670;2023-05-20T09:00:54;8.10;;;4.87;;
19016;SDS011;9641;51.494;6.670;2023-05-20T09:03:24;5.30;;;4.33;;
19016;SDS011;9641;51.494;6.670;2023-05-20T09:05:51;9.33;;;4.20;;
19016;SDS011;9641;51.494;6.670;2023-05-20T09:08:19;5.93;;;4.03;;
19016;SDS011;9641;51.494;6.670;2023-05-20T09:10:51;6.17;;;4.63;;
19016;SDS011;9641;51.494;6.670;2023-05-20T09:13:18;6.23;;;4.10;;
19016;SDS011;9641;51.494;6.670;2023-05-20T09:15:45;6.30;;;4.23;;
19016;SDS011;9641;51.494;6.670;2023-05-20T09:18:12;4.93;;;3.60;;
19016;SDS011;9641;51.494;6.670;2023-05-20T09:20:40;7.17;;;4.13;;
19016;SDS011;9641;51.494;6.670;2023-05-20T09:23:07;4.90;;;4.27;;
19016;SDS011;9641;51.494;6.670;2023-05-20T09:25:35;5.10;;;4.43;;
19016;SDS011;9641;51.494;6.670;2023-05-20T09:28:03;6.87;;;4.70;;
19016;SDS011;9641;51.494;6.670;2023-05-20T09:30:31;7.67;;;4.50;;
19016;SDS011;9641;51.494;6.670;2023-05-20T09:32:59;11.17;;;4.63;;
19016;SDS011;9641;51.494;6.670;2023-05-20T09:35:28;5.30;;;4.37;;
19016;SDS011;9641;51.494;6.670;2023-05-20T09:37:57;7.83;;;4.80;;
19016;SDS011;9641;51.494;6.670;2023-05-20T09:40:24;8.30;;;4.57;;
19016;SDS011;9641;51.494;6.670;2023-05-20T09:42:53;9.60;;;4.43;;
19016;SDS011;9641;51.494;6.670;2023-05-20T09:45:21;6.60;;;4.30;;
19016;SDS011;9641;51.494;6.670;2023-05-20T09:47:49;5.80;;;4.47;;
19016;SDS011;9641;51.494;6.670;2023-05-20T09:50:17;6.20;;;4.57;;
19016;SDS011;9641;51.494;6.670;2023-05-20T09:52:46;6.23;;;4.70;;
19016;SDS011;9641;51.494;6.670;2023-05-20T09:55:16;8.27;;;5.03;;
19016;SDS011;9641;51.494;6.670;2023-05-20T09:57:45;6.30;;;4.40;;
19016;SDS011;9641;51.494;6.670;2023-05-20T10:00:13;5.43;;;4.30;;
19016;SDS011;9641;51.494;6.670;2023-05-20T10:02:41;6.93;;;4.80;;
19016;SDS011;9641;51.494;6.670;2023-05-20T10:05:11;10.07;;;4.33;;
19016;SDS011;9641;51.494;6.670;2023-05-20T10:11:01;5.67;;;4.40;;
19016;SDS011;9641;51.494;6.670;2023-05-20T10:16:37;6.50;;;4.10;;
19016;SDS011;9641;51.494;6.670;2023-05-20T10:19:15;7.53;;;4.57;;
19016;SDS011;9641;51.494;6.670;2023-05-20T10:21:56;11.00;;;5.17;;
19016;SDS011;9641;51.494;6.670;2023-05-20T10:24:28;8.87;;;4.90;;
19016;SDS011;9641;51.494;6.670;2023-05-20T10:27:01;6.83;;;4.40;;
19016;SDS011;9641;51.494;6.670;2023-05-20T10:29:40;7.87;;;4.63;;
19016;SDS011;9641;51.494;6.670;2023-05-20T10:32:08;6.33;;;4.20;;
19016;SDS011;9641;51.494;6.670;2023-05-20T10:34:43;7.13;;;4.47;;
19016;SDS011;9641;51.494;6.670;2023-05-20T10:37:20;7.77;;;4.20;;
19016;SDS011;9641;51.494;6.670;2023-05-20T10:39:49;6.57;;;4.70;;
19016;SDS011;9641;51.494;6.670;2023-05-20T10:42:26;6.27;;;4.70;;
19016;SDS011;9641;51.494;6.670;2023-05-20T10:44:54;11.83;;;4.40;;
19016;SDS011;9641;51.494;6.670;2023-05-20T10:47:21;5.20;;;4.50;;
19016;SDS011;9641;51.494;6.670;2023-05-20T10:49:48;5.70;;;4.40;;
19016;SDS011;9641;51.494;6.670;2023-05-20T10:52:15;6.47;;;4.80;;
19016;SDS011;9641;51.494;6.670;2023-05-20T10:54:43;9.20;;;5.10;;
19016;SDS011;9641;51.494;6.670;2023-05-20T10:57:10;5.90;;;4.50;;
19016;SDS011;9641;51.494;6.670;2023-05-20T10:59:39;7.37;;;4.33;;
19016;SDS011;9641;51.494;6.670;2023-05-20T11:02:06;7.10;;;4.20;;
19016;SDS011;9641;51.494;6.670;2023-05-20T11:04:37;5.97;;;4.33;;
19016;SDS011;9641;51.494;6.670;2023-05-20T11:07:06;6.40;;;4.40;;
19016;SDS011;9641;51.494;6.670;2023-05-20T11:09:34;6.67;;;3.97;;
19016;SDS011;9641;51.494;6.670;2023-05-20T11:12:01;6.27;;;4.60;;
19016;SDS011;9641;51.494;6.670;2023-05-20T11:14:29;4.77;;;3.80;;
19016;SDS011;9641;51.494;6.670;2023-05-20T11:16:58;6.50;;;4.27;;
19016;SDS011;9641;51.494;6.670;2023-05-20T11:19:29;5.77;;;3.50;;
19016;SDS011;9641;51.494;6.670;2023-05-20T11:21:56;6.30;;;3.33;;
19016;SDS011;9641;51.494;6.670;2023-05-20T11:24:24;5.40;;;3.92;;
19016;SDS011;9641;51.494;6.670;2023-05-20T11:26:55;4.75;;;3.65;;
19016;SDS011;9641;51.494;6.670;2023-05-20T11:29:22;4.03;;;3.63;;
19016;SDS011;9641;51.494;6.670;2023-05-20T11:31:59;6.10;;;3.88;;
19016;SDS011;9641;51.494;6.670;2023-05-20T11:34:41;8.30;;;3.37;;
19016;SDS011;9641;51.494;6.670;2023-05-20T11:37:12;4.20;;;3.47;;
19016;SDS011;9641;51.494;6.670;2023-05-20T11:39:39;3.70;;;3.25;;
19016;SDS011;9641;51.494;6.670;2023-05-20T11:42:06;5.72;;;3.10;;
19016;SDS011;9641;51.494;6.670;2023-05-20T11:44:34;7.00;;;4.22;;
19016;SDS011;9641;51.494;6.670;2023-05-20T11:47:04;4.82;;;3.83;;
19016;SDS011;9641;51.494;6.670;2023-05-20T11:49:33;5.57;;;3.78;;
19016;SDS011;9641;51.494;6.670;2023-05-20T11:52:05;7.55;;;4.35;;
19016;SDS011;9641;51.494;6.670;2023-05-20T11:54:34;4.63;;;3.67;;
19016;SDS011;9641;51.494;6.670;2023-05-20T11:57:01;3.63;;;3.27;;
19016;SDS011;9641;51.494;6.670;2023-05-20T11:59:28;5.43;;;3.23;;
19016;SDS011;9641;51.494;6.670;2023-05-20T12:01:55;5.37;;;3.57;;
19016;SDS011;9641;51.494;6.670;2023-05-20T12:04:23;4.53;;;3.50;;
19016;SDS011;9641;51.494;6.670;2023-05-20T12:06:50;4.05;;;3.58;;
19016;SDS011;9641;51.494;6.670;2023-05-20T12:09:17;5.40;;;3.50;;
19016;SDS011;9641;51.494;6.670;2023-05-20T12:11:44;4.97;;;3.30;;
19016;SDS011;9641;51.494;6.670;2023-05-20T12:14:11;3.85;;;3.55;;
19016;SDS011;9641;51.494;6.670;2023-05-20T12:16:38;4.57;;;3.70;;
19016;SDS011;9641;51.494;6.670;2023-05-20T12:19:05;4.72;;;3.20;;
19016;SDS011;9641;51.494;6.670;2023-05-20T12:21:34;4.40;;;3.58;;
19016;SDS011;9641;51.494;6.670;2023-05-20T12:24:00;4.60;;;3.70;;
19016;SDS011;9641;51.494;6.670;2023-05-20T12:26:29;4.63;;;3.63;;
19016;SDS011;9641;51.494;6.670;2023-05-20T12:28:57;8.15;;;4.13;;
19016;SDS011;9641;51.494;6.670;2023-05-20T12:31:24;3.38;;;3.08;;
19016;SDS011;9641;51.494;6.670;2023-05-20T12:33:51;4.50;;;3.47;;
19016;SDS011;9641;51.494;6.670;2023-05-20T12:36:17;4.07;;;3.65;;
19016;SDS011;9641;51.494;6.670;2023-05-20T12:38:46;3.83;;;2.90;;
19016;SDS011;9641;51.494;6.670;2023-05-20T12:41:13;4.28;;;3.40;;
19016;SDS011;9641;51.494;6.670;2023-05-20T12:43:40;4.20;;;3.10;;
19016;SDS011;9641;51.494;6.670;2023-05-20T12:46:07;3.30;;;3.00;;
19016;SDS011;9641;51.494;6.670;2023-05-20T12:48:34;6.13;;;3.10;;
19016;SDS011;9641;51.494;6.670;2023-05-20T12:51:01;4.35;;;3.45;;
19016;SDS011;9641;51.494;6.670;2023-05-20T12:53:28;5.18;;;3.20;;
19016;SDS011;9641;51.494;6.670;2023-05-20T12:55:56;5.07;;;2.97;;
19016;SDS011;9641;51.494;6.670;2023-05-20T12:58:23;5.90;;;3.10;;
19016;SDS011;9641;51.494;6.670;2023-05-20T13:00:49;5.53;;;2.75;;
19016;SDS011;9641;51.494;6.670;2023-05-20T13:03:16;3.75;;;2.90;;
19016;SDS011;9641;51.494;6.670;2023-05-20T13:05:43;3.65;;;2.55;;
19016;SDS011;9641;51.494;6.670;2023-05-20T13:08:10;3.08;;;2.72;;
19016;SDS011;9641;51.494;6.670;2023-05-20T13:10:38;2.67;;;2.47;;
19016;SDS011;9641;51.494;6.670;2023-05-20T13:13:06;6.05;;;3.10;;
19016;SDS011;9641;51.494;6.670;2023-05-20T13:15:33;5.75;;;2.70;;
19016;SDS011;9641;51.494;6.670;2023-05-20T13:18:02;5.90;;;2.72;;
19016;SDS011;9641;51.494;6.670;2023-05-20T13:20:30;4.20;;;2.50;;
19016;SDS011;9641;51.494;6.670;2023-05-20T13:22:57;2.75;;;2.55;;
19016;SDS011;9641;51.494;6.670;2023-05-20T13:25:24;3.17;;;2.70;;
19016;SDS011;9641;51.494;6.670;2023-05-20T13:27:51;4.05;;;2.58;;
19016;SDS011;9641;51.494;6.670;2023-05-20T13:30:20;5.88;;;3.00;;
19016;SDS011;9641;51.494;6.670;2023-05-20T13:32:47;4.25;;;2.90;;
19016;SDS011;9641;51.494;6.670;2023-05-20T13:35:14;3.03;;;2.60;;
19016;SDS011;9641;51.494;6.670;2023-05-20T13:37:41;5.28;;;2.67;;
19016;SDS011;9641;51.494;6.670;2023-05-20T13:40:08;3.85;;;3.10;;
19016;SDS011;9641;51.494;6.670;2023-05-20T13:42:35;2.60;;;2.40;;
19016;SDS011;9641;51.494;6.670;2023-05-20T13:45:03;4.82;;;2.40;;
19016;SDS011;9641;51.494;6.670;2023-05-20T13:47:31;2.85;;;2.40;;
19016;SDS011;9641;51.494;6.670;2023-05-20T13:49:58;3.85;;;2.53;;
19016;SDS011;9641;51.494;6.670;2023-05-20T13:52:25;4.65;;;3.03;;
19016;SDS011;9641;51.494;6.670;2023-05-20T13:54:52;4.93;;;2.83;;
19016;SDS011;9641;51.494;6.670;2023-05-20T13:57:20;5.15;;;2.92;;
19016;SDS011;9641;51.494;6.670;2023-05-20T13:59:47;6.18;;;3.40;;
19016;SDS011;9641;51.494;6.670;2023-05-20T14:02:14;3.92;;;2.70;;
19016;SDS011;9641;51.494;6.670;2023-05-20T14:04:42;3.20;;;2.40;;
19016;SDS011;9641;51.494;6.670;2023-05-20T14:07:11;2.85;;;2.10;;
19016;SDS011;9641;51.494;6.670;2023-05-20T14:09:37;2.17;;;1.98;;
19016;SDS011;9641;51.494;6.670;2023-05-20T14:12:04;2.92;;;2.10;;
19016;SDS011;9641;51.494;6.670;2023-05-20T14:14:32;5.90;;;2.17;;
19016;SDS011;9641;51.494;6.670;2023-05-20T14:16:58;2.45;;;2.25;;
19016;SDS011;9641;51.494;6.670;2023-05-20T14:19:25;2.50;;;1.90;;
19016;SDS011;9641;51.494;6.670;2023-05-20T14:21:53;1.92;;;1.83;;
19016;SDS011;9641;51.494;6.670;2023-05-20T14:24:22;2.72;;;2.42;;
19016;SDS011;9641;51.494;6.670;2023-05-20T14:26:49;2.40;;;2.08;;
19016;SDS011;9641;51.494;6.670;2023-05-20T14:29:16;2.50;;;2.30;;
19016;SDS011;9641;51.494;6.670;2023-05-20T14:31:43;2.58;;;2.33;;
19016;SDS011;9641;51.494;6.670;2023-05-20T14:34:10;3.08;;;2.20;;
19016;SDS011;9641;51.494;6.670;2023-05-20T14:36:37;5.25;;;2.10;;
19016;SDS011;9641;51.494;6.670;2023-05-20T14:39:05;4.55;;;2.38;;
19016;SDS011;9641;51.494;6.670;2023-05-20T14:41:32;3.45;;;2.38;;
19016;SDS011;9641;51.494;6.670;2023-05-20T14:43:59;3.83;;;2.45;;
19016;SDS011;9641;51.494;6.670;2023-05-20T14:46:26;2.00;;;1.80;;
19016;SDS011;9641;51.494;6.670;2023-05-20T14:48:53;5.00;;;2.03;;
19016;SDS011;9641;51.494;6.670;2023-05-20T14:51:20;2.63;;;1.95;;
19016;SDS011;9641;51.494;6.670;2023-05-20T14:53:47;2.28;;;2.00;;
19016;SDS011;9641;51.494;6.670;2023-05-20T14:56:15;2.33;;;2.05;;
19016;SDS011;9641;51.494;6.670;2023-05-20T14:58:42;2.58;;;2.00;;
19016;SDS011;9641;51.494;6.670;2023-05-20T15:01:09;2.13;;;2.00;;
19016;SDS011;9641;51.494;6.670;2023-05-20T15:03:35;3.25;;;1.60;;
19016;SDS011;9641;51.494;6.670;2023-05-20T15:06:03;3.38;;;1.92;;
19016;SDS011;9641;51.494;6.670;2023-05-20T15:08:30;3.15;;;2.15;;
19016;SDS011;9641;51.494;6.670;2023-05-20T15:10:57;3.25;;;2.20;;
19016;SDS011;9641;51.494;6.670;2023-05-20T15:13:25;2.53;;;2.33;;